createdAt,value
2023-02-18T00:01:39.916Z,10.10
2023-02-18T00:04:07.957Z,10.00
2023-02-18T00:06:38.869Z,10.00
2023-02-18T00:09:08.996Z,10.00
2023-02-18T00:11:40.326Z,10.10
2023-02-18T00:14:13.646Z,10.00
2023-02-18T00:16:42.278Z,10.00
2023-02-18T00:19:14.925Z,10.00
2023-02-18T00:21:43.348Z,10.00
2023-02-18T00:24:15.187Z,9.90
2023-02-18T00:26:45.049Z,9.90
2023-02-18T00:29:13.469Z,9.90
2023-02-18T00:31:42.479Z,9.90
2023-02-18T00:34:12.753Z,9.90
2023-02-18T00:36:41.334Z,9.90
2023-02-18T00:39:11.177Z,9.90
2023-02-18T00:41:39.765Z,9.90
2023-02-18T00:44:09.543Z,9.90
2023-02-18T00:46:38.113Z,9.80
2023-02-18T00:49:07.159Z,9.80
2023-02-18T00:51:35.556Z,9.80
2023-02-18T00:54:03.718Z,9.80
2023-02-18T00:56:31.901Z,9.80
2023-02-18T00:58:59.938Z,9.80
2023-02-18T01:01:29.401Z,9.80
2023-02-18T01:03:57.606Z,9.80
2023-02-18T01:06:25.621Z,9.80
2023-02-18T01:08:53.718Z,9.80
2023-02-18T01:11:21.996Z,9.80
2023-02-18T01:13:50.156Z,9.80
2023-02-18T01:16:18.803Z,9.80
2023-02-18T01:18:48.329Z,9.80
2023-02-18T01:21:16.449Z,9.80
2023-02-18T01:23:44.495Z,9.80
2023-02-18T01:26:13.368Z,9.80
2023-02-18T01:28:42.159Z,9.80
2023-02-18T01:31:12.752Z,9.80
2023-02-18T01:33:41.248Z,9.80
2023-02-18T01:36:13.926Z,9.80
2023-02-18T01:38:42.080Z,9.80
2023-02-18T01:41:10.786Z,9.80
2023-02-18T01:43:39.410Z,9.70
2023-02-18T01:46:19.863Z,9.70
2023-02-18T01:48:52.734Z,9.60
2023-02-18T01:51:26.197Z,9.60
2023-02-18T01:53:57.361Z,9.50
2023-02-18T01:56:29.077Z,9.50
2023-02-18T01:59:00.390Z,9.40
2023-02-18T02:01:29.151Z,9.40
2023-02-18T02:03:57.268Z,9.30
2023-02-18T02:06:26.949Z,9.30
2023-02-18T02:08:58.910Z,9.20
2023-02-18T02:11:55.389Z,9.20
2023-02-18T02:14:33.502Z,9.20
2023-02-18T02:17:06.438Z,9.30
2023-02-18T02:19:57.740Z,9.20
2023-02-18T02:22:49.913Z,9.30
2023-02-18T02:25:45.488Z,9.30
2023-02-18T02:28:45.045Z,9.30
2023-02-18T02:31:46.422Z,9.30
2023-02-18T02:34:46.149Z,9.40
2023-02-18T02:37:18.942Z,9.40
2023-02-18T02:39:58.776Z,9.40
2023-02-18T02:42:36.939Z,9.40
2023-02-18T02:45:11.048Z,9.40
2023-02-18T02:47:46.758Z,9.40
2023-02-18T02:50:22.467Z,9.40
2023-02-18T02:52:53.584Z,9.40
2023-02-18T02:55:21.672Z,9.40
2023-02-18T02:57:52.456Z,9.40
2023-02-18T03:00:24.519Z,9.40
2023-02-18T03:03:36.053Z,9.40
2023-02-18T03:06:22.163Z,9.40
2023-02-18T03:08:58.290Z,9.50
2023-02-18T03:11:30.722Z,9.50
2023-02-18T03:14:06.851Z,9.50
2023-02-18T03:16:45.883Z,9.50
2023-02-18T03:19:21.149Z,9.50
2023-02-18T03:21:54.559Z,9.50
2023-02-18T03:24:28.335Z,9.50
2023-02-18T03:27:00.589Z,9.40
2023-02-18T03:29:29.971Z,9.40
2023-02-18T03:32:03.657Z,9.30
2023-02-18T03:34:35.210Z,9.20
2023-02-18T03:37:04.738Z,9.00
2023-02-18T03:39:36.439Z,8.90
2023-02-18T03:42:04.914Z,8.80
2023-02-18T03:44:33.133Z,8.60
2023-02-18T03:49:29.706Z,8.50
2023-02-18T03:51:57.752Z,8.40
2023-02-18T03:54:27.153Z,8.30
2023-02-18T03:56:55.318Z,8.30
2023-02-18T03:59:23.381Z,8.20
2023-02-18T04:01:51.455Z,8.10
2023-02-18T04:04:19.491Z,8.10
2023-02-18T04:06:47.653Z,8.10
2023-02-18T04:09:16.080Z,8.10
2023-02-18T04:11:45.507Z,8.00
2023-02-18T04:14:15.412Z,8.00
2023-02-18T04:16:43.824Z,7.90
2023-02-18T04:19:12.162Z,7.90
2023-02-18T04:21:40.251Z,7.80
2023-02-18T04:24:08.373Z,7.80
2023-02-18T04:26:36.524Z,7.80
2023-02-18T04:29:05.977Z,7.70
2023-02-18T04:31:34.259Z,7.70
2023-02-18T04:34:02.345Z,7.70
2023-02-18T04:36:30.394Z,7.70
2023-02-18T04:38:59.280Z,7.70
2023-02-18T04:41:27.381Z,7.70
2023-02-18T04:43:55.430Z,7.70
2023-02-18T04:46:24.916Z,7.70
2023-02-18T04:48:52.970Z,7.70
2023-02-18T04:51:21.329Z,7.80
2023-02-18T04:53:49.441Z,7.70
2023-02-18T04:56:17.545Z,7.80
2023-02-18T04:58:45.704Z,7.80
2023-02-18T05:01:14.255Z,7.80
2023-02-18T05:03:45.938Z,7.80
2023-02-18T05:06:14.027Z,7.80
2023-02-18T05:08:42.025Z,7.80
2023-02-18T05:11:10.595Z,7.80
2023-02-18T05:13:38.610Z,7.80
2023-02-18T05:16:07.318Z,7.90
2023-02-18T05:18:35.618Z,7.90
2023-02-18T05:21:05.358Z,8.00
2023-02-18T05:23:33.451Z,8.00
2023-02-18T05:26:01.607Z,8.00
2023-02-18T05:28:29.639Z,8.10
2023-02-18T05:30:58.578Z,8.10
2023-02-18T05:33:27.117Z,8.10
2023-02-18T05:35:55.272Z,8.20
2023-02-18T05:38:24.740Z,8.20
2023-02-18T05:40:52.790Z,8.20
2023-02-18T05:43:20.910Z,8.20
2023-02-18T05:45:49.215Z,8.20
2023-02-18T05:48:17.229Z,8.20
2023-02-18T05:50:45.347Z,8.20
2023-02-18T05:53:13.483Z,8.20
2023-02-18T05:55:42.970Z,8.10
2023-02-18T05:58:11.112Z,8.10
2023-02-18T06:00:39.198Z,8.10
2023-02-18T06:03:07.200Z,8.10
2023-02-18T06:05:35.305Z,8.10
2023-02-18T06:08:03.372Z,8.10
2023-02-18T06:10:31.458Z,8.10
2023-02-18T06:13:02.449Z,8.10
2023-02-18T06:15:30.480Z,8.10
2023-02-18T06:17:58.504Z,8.10
2023-02-18T06:20:26.669Z,8.00
2023-02-18T06:22:54.675Z,8.10
2023-02-18T06:25:22.770Z,8.00
2023-02-18T06:27:50.838Z,8.00
2023-02-18T06:30:22.271Z,7.90
2023-02-18T06:32:51.101Z,7.90
2023-02-18T06:35:19.382Z,7.90
2023-02-18T06:37:47.741Z,7.90
2023-02-18T06:40:15.876Z,7.80
2023-02-18T06:42:43.894Z,7.80
2023-02-18T06:45:11.929Z,7.80
2023-02-18T06:47:41.337Z,7.80
2023-02-18T06:50:09.816Z,7.80
2023-02-18T06:52:38.134Z,7.80
2023-02-18T06:55:06.892Z,7.80
2023-02-18T06:57:35.405Z,7.80
2023-02-18T07:00:03.741Z,7.70
2023-02-18T07:02:31.871Z,7.80
2023-02-18T07:05:01.469Z,7.80
2023-02-18T07:07:29.518Z,7.80
2023-02-18T07:09:57.595Z,7.80
2023-02-18T07:12:25.730Z,7.80
2023-02-18T07:14:53.808Z,7.90
2023-02-18T07:17:21.843Z,7.90
2023-02-18T07:19:49.889Z,7.90
2023-02-18T07:22:19.335Z,8.00
2023-02-18T07:24:47.448Z,8.10
2023-02-18T07:27:15.476Z,8.10
2023-02-18T07:29:43.614Z,8.20
2023-02-18T07:32:14.390Z,8.20
2023-02-18T07:34:42.683Z,8.30
2023-02-18T07:37:12.377Z,8.40
2023-02-18T07:39:43.210Z,8.40
2023-02-18T07:42:11.410Z,8.50
2023-02-18T07:44:40.392Z,8.50
2023-02-18T07:47:09.938Z,8.60
2023-02-18T07:49:38.058Z,8.60
2023-02-18T07:52:06.397Z,8.70
2023-02-18T07:54:34.538Z,8.80
2023-02-18T07:57:04.022Z,8.80
2023-02-18T07:59:32.214Z,8.90
2023-02-18T08:02:00.265Z,9.00
2023-02-18T08:04:28.600Z,9.10
2023-02-18T08:06:56.673Z,9.20
2023-02-18T08:09:24.758Z,9.30
2023-02-18T08:11:52.888Z,9.30
2023-02-18T08:14:22.291Z,9.30
2023-02-18T08:16:50.400Z,9.40
2023-02-18T08:19:18.471Z,9.50
2023-02-18T08:21:46.813Z,9.60
2023-02-18T08:24:14.859Z,9.70
2023-02-18T08:26:58.251Z,9.70
2023-02-18T08:29:29.417Z,9.80
2023-02-18T08:31:58.963Z,9.90
2023-02-18T08:34:27.234Z,10.00
2023-02-18T08:36:55.285Z,10.10
2023-02-18T08:39:23.335Z,10.20
2023-02-18T08:41:51.369Z,10.20
2023-02-18T08:44:19.394Z,10.30
2023-02-18T08:46:49.516Z,10.30
2023-02-18T08:49:20.854Z,10.40
2023-02-18T08:51:49.462Z,10.40
2023-02-18T08:54:17.867Z,10.50
2023-02-18T08:56:45.984Z,10.60
2023-02-18T08:59:14.013Z,10.70
2023-02-18T09:01:42.196Z,10.80
2023-02-18T09:04:11.724Z,10.80
2023-02-18T09:06:40.142Z,10.90
2023-02-18T09:09:08.404Z,10.90
2023-02-18T09:11:36.442Z,10.90
2023-02-18T09:14:04.639Z,10.90
2023-02-18T09:16:32.720Z,11.00
2023-02-18T09:19:00.756Z,11.10
2023-02-18T09:21:30.526Z,11.10
2023-02-18T09:23:59.225Z,11.20
2023-02-18T09:26:27.803Z,11.30
2023-02-18T09:28:57.541Z,11.40
2023-02-18T09:31:27.473Z,11.50
2023-02-18T09:33:57.594Z,11.60
2023-02-18T09:36:25.728Z,11.80
2023-02-18T09:38:55.536Z,11.90
2023-02-18T09:41:33.394Z,12.00
2023-02-18T09:44:04.042Z,12.20
2023-02-18T09:46:37.013Z,12.40
2023-02-18T09:49:08.387Z,12.60
2023-02-18T09:51:36.535Z,12.80
2023-02-18T09:54:06.122Z,13.00
2023-02-18T09:56:40.216Z,13.30
2023-02-18T09:59:15.883Z,13.50
2023-02-18T10:01:46.689Z,13.80
2023-02-18T10:04:18.412Z,14.00
2023-02-18T10:06:48.738Z,14.30
2023-02-18T10:09:21.996Z,14.50
2023-02-18T10:11:53.256Z,14.60
2023-02-18T10:14:22.398Z,14.70
2023-02-18T10:16:52.082Z,14.80
2023-02-18T10:19:27.211Z,14.90
2023-02-18T10:21:57.053Z,15.10
2023-02-18T10:24:35.800Z,15.20
2023-02-18T10:27:06.237Z,15.40
2023-02-18T10:29:34.376Z,15.60
2023-02-18T10:32:08.859Z,15.80
2023-02-18T10:34:42.581Z,16.10
2023-02-18T10:37:30.198Z,16.20
2023-02-18T10:40:10.573Z,16.50
2023-02-18T10:42:50.457Z,16.70
2023-02-18T10:45:27.942Z,17.00
2023-02-18T10:48:12.539Z,17.30
2023-02-18T10:50:43.066Z,17.50
2023-02-18T10:53:15.239Z,17.80
2023-02-18T10:55:49.071Z,18.00
2023-02-18T10:58:30.921Z,18.10
2023-02-18T11:00:59.281Z,18.20
2023-02-18T11:03:39.653Z,18.30
2023-02-18T11:06:16.702Z,18.40
2023-02-18T11:08:47.079Z,18.50
2023-02-18T11:11:22.042Z,18.60
2023-02-18T11:13:54.978Z,18.70
2023-02-18T11:16:24.504Z,18.80
2023-02-18T11:18:52.594Z,18.90
2023-02-18T11:21:27.486Z,18.90
2023-02-18T11:23:58.012Z,18.90
2023-02-18T11:26:32.541Z,18.90
2023-02-18T11:29:03.972Z,19.00
2023-02-18T11:31:44.329Z,18.90
2023-02-18T11:34:19.397Z,18.90
2023-02-18T11:36:48.459Z,18.80
2023-02-18T11:39:22.446Z,18.70
2023-02-18T11:41:57.819Z,18.60
2023-02-18T11:44:30.923Z,18.60
2023-02-18T11:47:01.914Z,18.60
2023-02-18T11:49:31.334Z,18.80
2023-02-18T11:52:07.298Z,19.00
2023-02-18T11:54:36.107Z,19.20
2023-02-18T11:57:07.619Z,19.40
2023-02-18T11:59:38.712Z,19.80
2023-02-18T12:02:27.860Z,20.20
2023-02-18T12:07:33.336Z,21.00
2023-02-18T12:10:05.908Z,21.60
2023-02-18T12:15:10.751Z,23.30
2023-02-18T12:18:02.844Z,24.20
2023-02-18T12:20:59.584Z,25.50
2023-02-18T12:23:35.058Z,26.20
2023-02-18T12:26:14.078Z,26.40
2023-02-18T12:28:56.600Z,27.10
2023-02-18T12:31:49.378Z,27.60
2023-02-18T12:34:34.787Z,28.20
2023-02-18T12:37:15.907Z,28.40
2023-02-18T12:39:59.633Z,28.80
2023-02-18T12:42:41.237Z,29.30
2023-02-18T12:45:31.273Z,30.10
2023-02-18T12:48:15.471Z,30.10
2023-02-18T12:51:06.843Z,30.40
2023-02-18T12:58:58.452Z,31.20
2023-02-18T13:01:44.929Z,31.40
2023-02-18T13:04:45.282Z,31.60
2023-02-18T13:07:32.043Z,31.70
2023-02-18T13:10:21.577Z,31.60
2023-02-18T13:12:55.765Z,31.70
2023-02-18T13:15:30.913Z,31.60
2023-02-18T13:18:03.062Z,31.60
2023-02-18T13:20:38.021Z,31.60
2023-02-18T13:23:07.011Z,31.40
2023-02-18T13:25:39.742Z,31.10
2023-02-18T13:28:19.067Z,30.80
2023-02-18T13:30:51.297Z,30.40
2023-02-18T13:33:29.892Z,29.90
2023-02-18T13:36:04.447Z,29.50
2023-02-18T13:38:57.841Z,29.20
2023-02-18T13:41:28.102Z,29.00
2023-02-18T13:43:56.222Z,28.80
2023-02-18T13:46:25.217Z,28.50
2023-02-18T13:49:05.237Z,28.10
2023-02-18T13:51:35.272Z,27.50
2023-02-18T13:54:13.089Z,27.00
2023-02-18T13:56:44.516Z,26.50
2023-02-18T13:59:18.670Z,26.00
2023-02-18T14:01:49.180Z,25.50
2023-02-18T14:04:51.024Z,25.00
2023-02-18T14:07:29.934Z,24.60
2023-02-18T14:10:00.197Z,24.20
2023-02-18T14:12:40.259Z,23.90
2023-02-18T14:15:44.491Z,23.60
2023-02-18T14:18:25.893Z,23.30
2023-02-18T14:21:07.430Z,23.10
2023-02-18T14:23:57.036Z,22.80
2023-02-18T14:28:58.796Z,22.30
2023-02-18T14:31:34.230Z,22.10
2023-02-18T14:34:43.585Z,22.00
2023-02-18T14:37:34.636Z,21.80
2023-02-18T14:40:17.446Z,21.70
2023-02-18T14:42:54.359Z,21.60
2023-02-18T14:45:33.776Z,21.50
2023-02-18T14:48:26.325Z,21.30
2023-02-18T14:50:56.568Z,21.10
2023-02-18T14:53:28.624Z,20.80
2023-02-18T14:56:01.133Z,20.60
2023-02-18T14:58:34.949Z,20.40
2023-02-18T15:01:08.555Z,20.30
2023-02-18T15:03:36.578Z,20.40
2023-02-18T15:06:05.933Z,20.40
2023-02-18T15:08:40.952Z,20.40
2023-02-18T15:11:09.867Z,20.40
2023-02-18T15:13:44.234Z,20.20
2023-02-18T15:16:17.447Z,20.20
2023-02-18T15:18:52.616Z,20.30
2023-02-18T15:21:25.775Z,20.40
2023-02-18T15:23:55.580Z,20.60
2023-02-18T15:26:23.735Z,20.90
2023-02-18T15:29:00.177Z,21.10
2023-02-18T15:31:29.817Z,21.50
2023-02-18T15:33:59.149Z,21.70
2023-02-18T15:36:28.197Z,21.90
2023-02-18T15:38:59.373Z,22.00
2023-02-18T15:41:27.599Z,21.90
2023-02-18T15:43:57.485Z,21.50
2023-02-18T15:46:26.561Z,21.00
2023-02-18T15:48:57.024Z,20.50
2023-02-18T15:51:28.763Z,20.10
2023-02-18T15:54:00.738Z,19.60
2023-02-18T15:56:33.599Z,19.30
2023-02-18T15:59:11.647Z,18.90
2023-02-18T16:01:39.751Z,18.60
2023-02-18T16:04:08.866Z,18.40
2023-02-18T16:06:40.088Z,18.10
2023-02-18T16:11:48.277Z,17.60
2023-02-18T16:14:29.636Z,17.50
2023-02-18T16:17:08.374Z,17.30
2023-02-18T16:19:49.107Z,17.10
2023-02-18T16:22:27.790Z,16.90
2023-02-18T16:25:00.488Z,16.70
2023-02-18T16:27:36.567Z,16.60
2023-02-18T16:30:15.476Z,16.50
2023-02-18T16:32:43.722Z,16.40
2023-02-18T16:35:12.453Z,16.30
2023-02-18T16:37:41.020Z,16.20
2023-02-18T16:40:30.992Z,16.00
2023-02-18T16:43:00.826Z,15.90
2023-02-18T16:45:35.481Z,15.80
2023-02-18T16:48:03.745Z,15.60
2023-02-18T16:50:33.425Z,15.50
2023-02-18T16:53:01.990Z,15.40
2023-02-18T16:55:31.875Z,15.30
2023-02-18T16:57:59.888Z,15.20
2023-02-18T17:00:28.003Z,15.10
2023-02-18T17:02:59.374Z,15.00
2023-02-18T17:05:29.602Z,14.90
2023-02-18T17:08:06.099Z,14.80
2023-02-18T17:10:36.524Z,14.70
2023-02-18T17:13:04.598Z,14.60
2023-02-18T17:15:34.964Z,14.50
2023-02-18T17:18:04.601Z,14.50
2023-02-18T17:20:33.967Z,14.40
2023-02-18T17:23:02.099Z,14.30
2023-02-18T17:25:34.409Z,14.30
2023-02-18T17:28:04.310Z,14.20
2023-02-18T17:30:35.948Z,14.10
2023-02-18T17:33:05.289Z,14.00
2023-02-18T17:35:33.784Z,14.00
2023-02-18T17:38:01.888Z,13.90
2023-02-18T17:42:59.599Z,13.70
2023-02-18T17:45:32.853Z,13.70
2023-02-18T17:48:02.283Z,13.60
2023-02-18T17:50:31.522Z,13.50
2023-02-18T17:52:59.658Z,13.50
2023-02-18T17:55:29.798Z,13.40
2023-02-18T17:57:58.394Z,13.40
2023-02-18T18:00:29.423Z,13.30
2023-02-18T18:02:57.454Z,13.20
2023-02-18T18:05:28.265Z,13.20
2023-02-18T18:07:56.706Z,13.20
2023-02-18T18:10:28.618Z,13.10
2023-02-18T18:12:56.726Z,13.00
2023-02-18T18:15:29.821Z,13.00
2023-02-18T18:17:59.421Z,13.00
2023-02-18T18:20:28.865Z,12.90
2023-02-18T18:22:58.850Z,12.90
2023-02-18T18:25:28.882Z,12.80
2023-02-18T18:27:57.255Z,12.80
2023-02-18T18:30:29.358Z,12.70
2023-02-18T18:32:58.418Z,12.70
2023-02-18T18:35:28.207Z,12.60
2023-02-18T18:37:56.887Z,12.60
2023-02-18T18:40:28.118Z,12.50
2023-02-18T18:42:56.604Z,12.40
2023-02-18T18:45:26.926Z,12.40
2023-02-18T18:47:56.805Z,12.30
2023-02-18T18:50:26.584Z,12.30
2023-02-18T18:52:54.878Z,12.20
2023-02-18T18:55:29.561Z,12.10
2023-02-18T18:57:58.621Z,12.10
2023-02-18T19:00:29.629Z,12.00
2023-02-18T19:03:00.146Z,12.00
2023-02-18T19:05:30.284Z,11.90
2023-02-18T19:07:59.447Z,11.90
2023-02-18T19:10:30.311Z,11.80
2023-02-18T19:13:02.803Z,11.70
2023-02-18T19:15:31.300Z,11.60
2023-02-18T19:18:01.325Z,11.50
2023-02-18T19:20:32.323Z,11.50
2023-02-18T19:23:00.582Z,11.40
2023-02-18T19:25:28.852Z,11.30
2023-02-18T19:27:56.910Z,11.30
2023-02-18T19:30:27.545Z,11.20
2023-02-18T19:32:57.484Z,11.10
2023-02-18T19:35:28.494Z,11.10
2023-02-18T19:37:56.903Z,11.00
2023-02-18T19:40:27.517Z,11.00
2023-02-18T19:42:55.749Z,10.90
2023-02-18T19:45:24.529Z,10.90
2023-02-18T19:47:55.229Z,10.90
2023-02-18T19:50:23.499Z,10.80
2023-02-18T19:52:54.827Z,10.80
2023-02-18T19:55:24.089Z,10.70
2023-02-18T19:57:52.753Z,10.70
2023-02-18T20:00:23.302Z,10.70
2023-02-18T20:02:51.826Z,10.60
2023-02-18T20:05:20.758Z,10.50
2023-02-18T20:07:48.777Z,10.50
2023-02-18T20:10:20.042Z,10.50
2023-02-18T20:12:53.417Z,10.40
2023-02-18T20:15:21.841Z,10.30
2023-02-18T20:17:50.158Z,10.30
2023-02-18T20:20:18.644Z,10.20
2023-02-18T20:22:46.939Z,10.20
2023-02-18T20:25:15.059Z,10.10
2023-02-18T20:27:59.833Z,10.10
2023-02-18T20:30:28.823Z,10.10
2023-02-18T20:32:56.920Z,10.00
2023-02-18T20:35:25.342Z,10.00
2023-02-18T20:37:53.412Z,10.00
2023-02-18T20:40:21.499Z,10.00
2023-02-18T20:42:50.925Z,9.90
2023-02-18T20:45:19.262Z,9.90
2023-02-18T20:47:47.318Z,9.90
2023-02-18T20:50:15.921Z,9.90
2023-02-18T20:52:44.045Z,9.90
2023-02-18T20:55:12.346Z,9.90
2023-02-18T20:57:40.409Z,9.80
2023-02-18T21:00:11.737Z,9.70
2023-02-18T21:02:39.823Z,9.70
2023-02-18T21:05:08.319Z,9.70
2023-02-18T21:07:36.367Z,9.70
2023-02-18T21:10:06.541Z,9.60
2023-02-18T21:12:34.587Z,9.60
2023-02-18T21:15:02.708Z,9.60
2023-02-18T21:17:32.085Z,9.60
2023-02-18T21:20:00.883Z,9.60
2023-02-18T21:22:28.984Z,9.60
2023-02-18T21:24:57.080Z,9.50
2023-02-18T21:27:25.171Z,9.50
2023-02-18T21:29:53.346Z,9.50
2023-02-18T21:32:21.427Z,9.50
2023-02-18T21:34:51.096Z,9.40
2023-02-18T21:37:19.150Z,9.40
2023-02-18T21:39:47.211Z,9.40
2023-02-18T21:42:15.258Z,9.40
2023-02-18T21:44:43.338Z,9.30
2023-02-18T21:47:12.708Z,9.30
2023-02-18T21:49:40.855Z,9.30
2023-02-18T21:52:10.235Z,9.30
2023-02-18T21:54:40.436Z,9.30
2023-02-18T21:57:12.029Z,9.30
2023-02-18T21:59:40.701Z,9.20
2023-02-18T22:02:12.984Z,9.20
2023-02-18T22:04:41.053Z,9.30
2023-02-18T22:07:10.478Z,9.30
2023-02-18T22:09:38.851Z,9.30
2023-02-18T22:12:07.490Z,9.30
2023-02-18T22:14:35.630Z,9.30
2023-02-18T22:17:03.832Z,9.30
2023-02-18T22:19:31.898Z,9.40
2023-02-18T22:22:00.481Z,9.40
2023-02-18T22:24:30.585Z,9.40
2023-02-18T22:27:01.070Z,9.40
2023-02-18T22:29:30.076Z,9.40
2023-02-18T22:31:58.205Z,9.50
2023-02-18T22:34:26.468Z,9.50
2023-02-18T22:36:54.501Z,9.50
2023-02-18T22:39:22.689Z,9.50
2023-02-18T22:41:52.104Z,9.60
2023-02-18T22:44:20.331Z,9.60
2023-02-18T22:46:48.399Z,9.60
2023-02-18T22:49:16.753Z,9.70
2023-02-18T22:51:45.706Z,9.70
2023-02-18T22:54:15.894Z,9.80
2023-02-18T22:56:44.936Z,9.90
2023-02-18T22:59:16.771Z,10.00
2023-02-18T23:01:49.251Z,10.10
2023-02-18T23:04:18.877Z,10.10
2023-02-18T23:06:47.939Z,10.20
2023-02-18T23:09:17.924Z,10.30
2023-02-18T23:11:46.869Z,10.40
2023-02-18T23:14:19.167Z,10.40
2023-02-18T23:17:05.732Z,10.50
2023-02-18T23:19:36.252Z,10.60
2023-02-18T23:22:04.552Z,10.60
2023-02-18T23:24:34.198Z,10.70
2023-02-18T23:27:02.317Z,10.70
2023-02-18T23:29:32.117Z,10.80
2023-02-18T23:32:00.241Z,10.80
2023-02-18T23:34:28.604Z,10.80
2023-02-18T23:36:56.999Z,10.90
2023-02-18T23:39:25.478Z,10.90
2023-02-18T23:41:54.020Z,10.90
2023-02-18T23:44:23.994Z,11.00
2023-02-18T23:46:53.985Z,11.00
2023-02-18T23:49:23.803Z,11.00
2023-02-18T23:51:53.114Z,11.00
2023-02-18T23:54:22.216Z,11.00
2023-02-18T23:56:50.342Z,11.10
2023-02-18T23:59:18.736Z,11.10
